sensor_id;sensor_type;location;lat;lon;timestamp;P1;durP1;ratioP1;P2;durP2;ratioP2
45842;SDS011;31563;51.744;8.252;2023-02-10T00:01:32;5.50;;;4.65;;
45842;SDS011;31563;51.744;8.252;2023-02-10T00:04:00;5.25;;;4.30;;
45842;SDS011;31563;51.744;8.252;2023-02-10T00:06:30;4.53;;;3.90;;
45842;SDS011;31563;51.744;8.252;2023-02-10T00:11:28;5.35;;;4.10;;
45842;SDS011;31563;51.744;8.252;2023-02-10T00:14:15;5.47;;;4.13;;
45842;SDS011;31563;51.744;8.252;2023-02-10T00:19:13;5.30;;;4.10;;
45842;SDS011;31563;51.744;8.252;2023-02-10T00:21:43;4.60;;;4.10;;
45842;SDS011;31563;51.744;8.252;2023-02-10T00:24:11;4.15;;;3.67;;
45842;SDS011;31563;51.744;8.252;2023-02-10T00:26:39;4.57;;;3.75;;
45842;SDS011;31563;51.744;8.252;2023-02-10T00:29:07;4.60;;;3.80;;
45842;SDS011;31563;51.744;8.252;2023-02-10T00:31:35;4.97;;;4.07;;
45842;SDS011;31563;51.744;8.252;2023-02-10T00:34:03;4.57;;;3.80;;
45842;SDS011;31563;51.744;8.252;2023-02-10T00:36:32;4.18;;;3.72;;
45842;SDS011;31563;51.744;8.252;2023-02-10T00:39:01;4.25;;;3.85;;
45842;SDS011;31563;51.744;8.252;2023-02-10T00:41:29;4.18;;;3.60;;
45842;SDS011;31563;51.744;8.252;2023-02-10T00:43:57;4.38;;;3.70;;
45842;SDS011;31563;51.744;8.252;2023-02-10T00:46:25;4.35;;;3.95;;
45842;SDS011;31563;51.744;8.252;2023-02-10T00:48:54;4.93;;;3.88;;
45842;SDS011;31563;51.744;8.252;2023-02-10T00:51:22;4.80;;;3.90;;
45842;SDS011;31563;51.744;8.252;2023-02-10T00:53:50;4.93;;;3.85;;
45842;SDS011;31563;51.744;8.252;2023-02-10T00:56:20;5.57;;;4.30;;
45842;SDS011;31563;51.744;8.252;2023-02-10T00:58:48;4.15;;;3.75;;
45842;SDS011;31563;51.744;8.252;2023-02-10T01:01:16;5.13;;;3.72;;
45842;SDS011;31563;51.744;8.252;2023-02-10T01:03:44;4.88;;;4.15;;
45842;SDS011;31563;51.744;8.252;2023-02-10T01:06:13;4.75;;;4.10;;
45842;SDS011;31563;51.744;8.252;2023-02-10T01:08:41;4.33;;;3.93;;
45842;SDS011;31563;51.744;8.252;2023-02-10T01:11:10;4.28;;;3.88;;
45842;SDS011;31563;51.744;8.252;2023-02-10T01:13:41;4.60;;;4.07;;
45842;SDS011;31563;51.744;8.252;2023-02-10T01:18:40;4.15;;;3.75;;
45842;SDS011;31563;51.744;8.252;2023-02-10T01:21:10;4.85;;;4.25;;
45842;SDS011;31563;51.744;8.252;2023-02-10T01:26:07;5.45;;;4.43;;
45842;SDS011;31563;51.744;8.252;2023-02-10T01:28:35;5.35;;;4.00;;
45842;SDS011;31563;51.744;8.252;2023-02-10T01:31:06;4.03;;;3.65;;
45842;SDS011;31563;51.744;8.252;2023-02-10T01:33:34;4.55;;;3.75;;
45842;SDS011;31563;51.744;8.252;2023-02-10T01:36:03;4.43;;;3.70;;
45842;SDS011;31563;51.744;8.252;2023-02-10T01:38:32;4.13;;;3.70;;
45842;SDS011;31563;51.744;8.252;2023-02-10T01:41:01;4.40;;;3.70;;
45842;SDS011;31563;51.744;8.252;2023-02-10T01:43:29;5.00;;;4.45;;
45842;SDS011;31563;51.744;8.252;2023-02-10T01:45:57;4.95;;;3.78;;
45842;SDS011;31563;51.744;8.252;2023-02-10T01:48:27;4.68;;;4.07;;
45842;SDS011;31563;51.744;8.252;2023-02-10T01:53:24;4.10;;;3.58;;
45842;SDS011;31563;51.744;8.252;2023-02-10T01:55:53;4.10;;;3.67;;
45842;SDS011;31563;51.744;8.252;2023-02-10T01:58:24;5.43;;;4.15;;
45842;SDS011;31563;51.744;8.252;2023-02-10T02:00:55;4.53;;;3.58;;
45842;SDS011;31563;51.744;8.252;2023-02-10T02:03:23;4.80;;;3.92;;
45842;SDS011;31563;51.744;8.252;2023-02-10T02:05:53;4.32;;;3.60;;
45842;SDS011;31563;51.744;8.252;2023-02-10T02:08:21;5.82;;;4.18;;
45842;SDS011;31563;51.744;8.252;2023-02-10T02:10:54;4.13;;;3.72;;
45842;SDS011;31563;51.744;8.252;2023-02-10T02:19:05;4.13;;;3.72;;
45842;SDS011;31563;51.744;8.252;2023-02-10T02:22:06;4.45;;;3.97;;
45842;SDS011;31563;51.744;8.252;2023-02-10T02:24:57;5.22;;;3.90;;
45842;SDS011;31563;51.744;8.252;2023-02-10T02:27:46;5.38;;;4.22;;
45842;SDS011;31563;51.744;8.252;2023-02-10T02:30:36;5.10;;;3.88;;
45842;SDS011;31563;51.744;8.252;2023-02-10T02:33:22;5.63;;;4.20;;
45842;SDS011;31563;51.744;8.252;2023-02-10T02:35:56;5.15;;;4.35;;
45842;SDS011;31563;51.744;8.252;2023-02-10T02:38:28;5.80;;;4.43;;
45842;SDS011;31563;51.744;8.252;2023-02-10T02:40:56;5.82;;;4.45;;
45842;SDS011;31563;51.744;8.252;2023-02-10T02:43:24;5.15;;;4.20;;
45842;SDS011;31563;51.744;8.252;2023-02-10T02:45:53;4.57;;;3.88;;
45842;SDS011;31563;51.744;8.252;2023-02-10T02:48:33;5.03;;;4.05;;
45842;SDS011;31563;51.744;8.252;2023-02-10T02:51:24;5.38;;;4.50;;
45842;SDS011;31563;51.744;8.252;2023-02-10T02:54:07;4.00;;;3.60;;
45842;SDS011;31563;51.744;8.252;2023-02-10T02:56:54;4.55;;;4.00;;
45842;SDS011;31563;51.744;8.252;2023-02-10T02:59:29;4.70;;;3.90;;
45842;SDS011;31563;51.744;8.252;2023-02-10T03:02:02;4.28;;;3.70;;
45842;SDS011;31563;51.744;8.252;2023-02-10T03:04:34;5.32;;;4.28;;
45842;SDS011;31563;51.744;8.252;2023-02-10T03:07:05;4.28;;;3.88;;
45842;SDS011;31563;51.744;8.252;2023-02-10T03:09:33;5.72;;;4.47;;
45842;SDS011;31563;51.744;8.252;2023-02-10T03:12:03;5.13;;;4.07;;
45842;SDS011;31563;51.744;8.252;2023-02-10T03:14:31;5.00;;;4.20;;
45842;SDS011;31563;51.744;8.252;2023-02-10T03:16:59;6.00;;;3.65;;
45842;SDS011;31563;51.744;8.252;2023-02-10T03:19:27;4.85;;;4.10;;
45842;SDS011;31563;51.744;8.252;2023-02-10T03:21:57;4.65;;;3.72;;
45842;SDS011;31563;51.744;8.252;2023-02-10T03:24:25;4.88;;;3.67;;
45842;SDS011;31563;51.744;8.252;2023-02-10T03:26:53;4.93;;;4.10;;
45842;SDS011;31563;51.744;8.252;2023-02-10T03:29:21;4.88;;;4.15;;
45842;SDS011;31563;51.744;8.252;2023-02-10T03:31:50;5.10;;;4.45;;
45842;SDS011;31563;51.744;8.252;2023-02-10T03:34:18;5.05;;;4.20;;
45842;SDS011;31563;51.744;8.252;2023-02-10T03:36:46;5.75;;;4.30;;
45842;SDS011;31563;51.744;8.252;2023-02-10T03:39:15;5.15;;;4.28;;
45842;SDS011;31563;51.744;8.252;2023-02-10T03:41:44;5.45;;;4.10;;
45842;SDS011;31563;51.744;8.252;2023-02-10T03:44:12;4.63;;;3.92;;
45842;SDS011;31563;51.744;8.252;2023-02-10T03:46:40;6.32;;;4.65;;
45842;SDS011;31563;51.744;8.252;2023-02-10T03:49:08;4.40;;;3.92;;
45842;SDS011;31563;51.744;8.252;2023-02-10T03:51:36;5.47;;;4.20;;
45842;SDS011;31563;51.744;8.252;2023-02-10T03:54:04;4.68;;;4.15;;
45842;SDS011;31563;51.744;8.252;2023-02-10T03:56:34;6.25;;;4.50;;
45842;SDS011;31563;51.744;8.252;2023-02-10T03:59:02;4.75;;;4.18;;
45842;SDS011;31563;51.744;8.252;2023-02-10T04:01:31;5.47;;;4.20;;
45842;SDS011;31563;51.744;8.252;2023-02-10T04:04:00;5.55;;;4.28;;
45842;SDS011;31563;51.744;8.252;2023-02-10T04:06:28;4.65;;;4.07;;
45842;SDS011;31563;51.744;8.252;2023-02-10T04:08:56;5.22;;;4.10;;
45842;SDS011;31563;51.744;8.252;2023-02-10T04:11:25;5.35;;;4.18;;
45842;SDS011;31563;51.744;8.252;2023-02-10T04:13:54;5.97;;;4.47;;
45842;SDS011;31563;51.744;8.252;2023-02-10T04:16:23;4.72;;;3.97;;
45842;SDS011;31563;51.744;8.252;2023-02-10T04:18:54;5.32;;;3.72;;
45842;SDS011;31563;51.744;8.252;2023-02-10T04:21:22;4.72;;;3.45;;
45842;SDS011;31563;51.744;8.252;2023-02-10T04:23:51;4.90;;;4.10;;
45842;SDS011;31563;51.744;8.252;2023-02-10T04:26:20;4.28;;;3.88;;
45842;SDS011;31563;51.744;8.252;2023-02-10T04:28:48;5.57;;;4.32;;
45842;SDS011;31563;51.744;8.252;2023-02-10T04:31:18;4.38;;;3.58;;
45842;SDS011;31563;51.744;8.252;2023-02-10T04:33:46;5.90;;;4.13;;
45842;SDS011;31563;51.744;8.252;2023-02-10T04:36:14;5.18;;;4.32;;
45842;SDS011;31563;51.744;8.252;2023-02-10T04:38:42;5.03;;;4.20;;
45842;SDS011;31563;51.744;8.252;2023-02-10T04:41:10;6.25;;;4.25;;
45842;SDS011;31563;51.744;8.252;2023-02-10T04:43:38;6.50;;;4.45;;
45842;SDS011;31563;51.744;8.252;2023-02-10T04:46:06;4.93;;;4.18;;
45842;SDS011;31563;51.744;8.252;2023-02-10T04:48:36;5.57;;;4.05;;
45842;SDS011;31563;51.744;8.252;2023-02-10T04:51:07;4.32;;;3.80;;
45842;SDS011;31563;51.744;8.252;2023-02-10T04:53:36;4.80;;;3.95;;
45842;SDS011;31563;51.744;8.252;2023-02-10T04:56:05;5.07;;;3.95;;
45842;SDS011;31563;51.744;8.252;2023-02-10T04:58:34;4.88;;;3.80;;
45842;SDS011;31563;51.744;8.252;2023-02-10T05:01:02;4.35;;;3.95;;
45842;SDS011;31563;51.744;8.252;2023-02-10T05:03:30;4.30;;;3.88;;
45842;SDS011;31563;51.744;8.252;2023-02-10T05:06:04;4.55;;;3.65;;
45842;SDS011;31563;51.744;8.252;2023-02-10T05:08:34;5.55;;;4.10;;
45842;SDS011;31563;51.744;8.252;2023-02-10T05:11:07;4.65;;;3.45;;
45842;SDS011;31563;51.744;8.252;2023-02-10T05:13:35;5.45;;;4.20;;
45842;SDS011;31563;51.744;8.252;2023-02-10T05:16:03;4.97;;;4.30;;
45842;SDS011;31563;51.744;8.252;2023-02-10T05:18:33;4.93;;;4.03;;
45842;SDS011;31563;51.744;8.252;2023-02-10T05:21:03;5.00;;;4.00;;
45842;SDS011;31563;51.744;8.252;2023-02-10T05:23:33;5.05;;;4.20;;
45842;SDS011;31563;51.744;8.252;2023-02-10T05:26:01;5.47;;;4.13;;
45842;SDS011;31563;51.744;8.252;2023-02-10T05:28:30;5.05;;;4.05;;
45842;SDS011;31563;51.744;8.252;2023-02-10T05:31:00;5.03;;;4.10;;
45842;SDS011;31563;51.744;8.252;2023-02-10T05:33:31;4.18;;;3.45;;
45842;SDS011;31563;51.744;8.252;2023-02-10T05:36:00;3.43;;;2.70;;
45842;SDS011;31563;51.744;8.252;2023-02-10T05:38:30;4.80;;;3.88;;
45842;SDS011;31563;51.744;8.252;2023-02-10T05:40:58;4.97;;;4.15;;
45842;SDS011;31563;51.744;8.252;2023-02-10T05:43:26;5.38;;;3.95;;
45842;SDS011;31563;51.744;8.252;2023-02-10T05:45:54;5.53;;;4.15;;
45842;SDS011;31563;51.744;8.252;2023-02-10T05:48:22;4.10;;;3.70;;
45842;SDS011;31563;51.744;8.252;2023-02-10T05:50:50;4.38;;;3.70;;
45842;SDS011;31563;51.744;8.252;2023-02-10T05:53:19;4.35;;;3.53;;
45842;SDS011;31563;51.744;8.252;2023-02-10T05:55:48;4.97;;;4.15;;
45842;SDS011;31563;51.744;8.252;2023-02-10T05:58:16;4.38;;;3.55;;
45842;SDS011;31563;51.744;8.252;2023-02-10T06:00:44;5.13;;;4.07;;
45842;SDS011;31563;51.744;8.252;2023-02-10T06:03:12;5.25;;;3.78;;
45842;SDS011;31563;51.744;8.252;2023-02-10T06:05:41;4.65;;;3.70;;
45842;SDS011;31563;51.744;8.252;2023-02-10T06:08:12;4.93;;;4.28;;
45842;SDS011;31563;51.744;8.252;2023-02-10T06:10:40;6.07;;;4.35;;
45842;SDS011;31563;51.744;8.252;2023-02-10T06:13:10;4.25;;;3.85;;
45842;SDS011;31563;51.744;8.252;2023-02-10T06:15:38;4.68;;;4.25;;
45842;SDS011;31563;51.744;8.252;2023-02-10T06:18:06;5.78;;;4.15;;
45842;SDS011;31563;51.744;8.252;2023-02-10T06:20:34;4.78;;;3.88;;
45842;SDS011;31563;51.744;8.252;2023-02-10T06:23:03;18.67;;;14.70;;
45842;SDS011;31563;51.744;8.252;2023-02-10T06:25:31;26.95;;;23.30;;
45842;SDS011;31563;51.744;8.252;2023-02-10T06:28:02;34.40;;;28.00;;
45842;SDS011;31563;51.744;8.252;2023-02-10T06:30:32;34.70;;;28.00;;
45842;SDS011;31563;51.744;8.252;2023-02-10T06:33:00;36.28;;;29.25;;
45842;SDS011;31563;51.744;8.252;2023-02-10T06:35:28;35.40;;;27.90;;
45842;SDS011;31563;51.744;8.252;2023-02-10T06:37:56;36.55;;;30.67;;
45842;SDS011;31563;51.744;8.252;2023-02-10T06:40:24;38.17;;;31.65;;
45842;SDS011;31563;51.744;8.252;2023-02-10T06:42:52;35.40;;;29.75;;
45842;SDS011;31563;51.744;8.252;2023-02-10T06:45:20;35.90;;;29.58;;
45842;SDS011;31563;51.744;8.252;2023-02-10T06:47:50;35.55;;;28.70;;
45842;SDS011;31563;51.744;8.252;2023-02-10T06:50:18;33.38;;;26.55;;
45842;SDS011;31563;51.744;8.252;2023-02-10T06:52:46;31.60;;;25.77;;
45842;SDS011;31563;51.744;8.252;2023-02-10T06:55:15;28.10;;;24.35;;
45842;SDS011;31563;51.744;8.252;2023-02-10T06:57:43;29.55;;;23.67;;
45842;SDS011;31563;51.744;8.252;2023-02-10T07:00:12;27.58;;;23.23;;
45842;SDS011;31563;51.744;8.252;2023-02-10T07:02:41;28.27;;;23.05;;
45842;SDS011;31563;51.744;8.252;2023-02-10T07:05:11;24.80;;;21.20;;
45842;SDS011;31563;51.744;8.252;2023-02-10T07:07:39;23.70;;;20.33;;
45842;SDS011;31563;51.744;8.252;2023-02-10T07:10:07;23.88;;;19.67;;
45842;SDS011;31563;51.744;8.252;2023-02-10T07:12:36;22.40;;;19.73;;
45842;SDS011;31563;51.744;8.252;2023-02-10T07:15:04;25.67;;;19.27;;
45842;SDS011;31563;51.744;8.252;2023-02-10T07:17:33;31.00;;;24.25;;
45842;SDS011;31563;51.744;8.252;2023-02-10T07:20:03;32.00;;;25.83;;
45842;SDS011;31563;51.744;8.252;2023-02-10T07:22:33;37.10;;;30.33;;
45842;SDS011;31563;51.744;8.252;2023-02-10T07:25:02;36.13;;;30.20;;
45842;SDS011;31563;51.744;8.252;2023-02-10T07:27:30;36.47;;;30.25;;
45842;SDS011;31563;51.744;8.252;2023-02-10T07:29:59;36.47;;;30.08;;
45842;SDS011;31563;51.744;8.252;2023-02-10T07:32:27;37.03;;;29.02;;
45842;SDS011;31563;51.744;8.252;2023-02-10T07:34:55;38.83;;;31.13;;
45842;SDS011;31563;51.744;8.252;2023-02-10T07:37:23;37.80;;;30.88;;
45842;SDS011;31563;51.744;8.252;2023-02-10T07:39:54;37.03;;;30.48;;
45842;SDS011;31563;51.744;8.252;2023-02-10T07:42:22;37.15;;;29.95;;
45842;SDS011;31563;51.744;8.252;2023-02-10T07:44:50;35.58;;;27.05;;
45842;SDS011;31563;51.744;8.252;2023-02-10T07:47:18;32.90;;;25.58;;
45842;SDS011;31563;51.744;8.252;2023-02-10T07:49:46;31.85;;;24.95;;
45842;SDS011;31563;51.744;8.252;2023-02-10T07:52:14;28.83;;;24.05;;
45842;SDS011;31563;51.744;8.252;2023-02-10T07:54:42;30.10;;;23.42;;
45842;SDS011;31563;51.744;8.252;2023-02-10T07:57:12;26.77;;;22.88;;
45842;SDS011;31563;51.744;8.252;2023-02-10T07:59:40;27.17;;;21.98;;
45842;SDS011;31563;51.744;8.252;2023-02-10T08:02:08;26.08;;;21.20;;
45842;SDS011;31563;51.744;8.252;2023-02-10T08:04:37;26.23;;;20.47;;
45842;SDS011;31563;51.744;8.252;2023-02-10T08:07:05;23.42;;;20.05;;
45842;SDS011;31563;51.744;8.252;2023-02-10T08:09:34;23.38;;;18.80;;
45842;SDS011;31563;51.744;8.252;2023-02-10T08:12:02;21.70;;;18.33;;
45842;SDS011;31563;51.744;8.252;2023-02-10T08:14:33;22.45;;;18.77;;
45842;SDS011;31563;51.744;8.252;2023-02-10T08:17:01;20.80;;;16.80;;
45842;SDS011;31563;51.744;8.252;2023-02-10T08:19:31;22.10;;;16.30;;
45842;SDS011;31563;51.744;8.252;2023-02-10T08:22:02;21.20;;;16.85;;
45842;SDS011;31563;51.744;8.252;2023-02-10T08:24:30;19.52;;;15.98;;
45842;SDS011;31563;51.744;8.252;2023-02-10T08:26:58;17.63;;;15.15;;
45842;SDS011;31563;51.744;8.252;2023-02-10T08:29:27;18.80;;;15.15;;
45842;SDS011;31563;51.744;8.252;2023-02-10T08:31:56;18.33;;;14.40;;
45842;SDS011;31563;51.744;8.252;2023-02-10T08:34:24;18.10;;;14.75;;
45842;SDS011;31563;51.744;8.252;2023-02-10T08:36:53;17.77;;;14.48;;
45842;SDS011;31563;51.744;8.252;2023-02-10T08:39:21;14.90;;;12.52;;
45842;SDS011;31563;51.744;8.252;2023-02-10T08:41:50;15.20;;;12.50;;
45842;SDS011;31563;51.744;8.252;2023-02-10T08:44:18;15.73;;;12.45;;
45842;SDS011;31563;51.744;8.252;2023-02-10T08:46:46;14.85;;;12.23;;
45842;SDS011;31563;51.744;8.252;2023-02-10T08:49:16;16.45;;;12.73;;
45842;SDS011;31563;51.744;8.252;2023-02-10T08:51:44;15.98;;;12.38;;
45842;SDS011;31563;51.744;8.252;2023-02-10T08:54:12;15.02;;;11.40;;
45842;SDS011;31563;51.744;8.252;2023-02-10T08:56:41;12.75;;;10.90;;
45842;SDS011;31563;51.744;8.252;2023-02-10T08:59:09;12.88;;;11.55;;
45842;SDS011;31563;51.744;8.252;2023-02-10T09:01:37;12.70;;;10.63;;
45842;SDS011;31563;51.744;8.252;2023-02-10T09:04:06;11.32;;;10.02;;
45842;SDS011;31563;51.744;8.252;2023-02-10T09:06:36;13.38;;;9.43;;
45842;SDS011;31563;51.744;8.252;2023-02-10T09:09:08;11.77;;;8.93;;
45842;SDS011;31563;51.744;8.252;2023-02-10T09:11:37;12.70;;;9.68;;
45842;SDS011;31563;51.744;8.252;2023-02-10T09:14:05;11.35;;;9.40;;
45842;SDS011;31563;51.744;8.252;2023-02-10T09:16:34;10.77;;;8.93;;
45842;SDS011;31563;51.744;8.252;2023-02-10T09:19:02;10.23;;;8.75;;
45842;SDS011;31563;51.744;8.252;2023-02-10T09:21:31;11.13;;;8.70;;
45842;SDS011;31563;51.744;8.252;2023-02-10T09:24:13;11.15;;;9.48;;
45842;SDS011;31563;51.744;8.252;2023-02-10T09:26:41;11.55;;;9.38;;
45842;SDS011;31563;51.744;8.252;2023-02-10T09:29:10;10.82;;;8.93;;
45842;SDS011;31563;51.744;8.252;2023-02-10T09:31:38;12.55;;;9.73;;
45842;SDS011;31563;51.744;8.252;2023-02-10T09:34:07;10.95;;;9.23;;
45842;SDS011;31563;51.744;8.252;2023-02-10T09:36:35;9.85;;;8.25;;
45842;SDS011;31563;51.744;8.252;2023-02-10T09:39:03;10.23;;;8.02;;
45842;SDS011;31563;51.744;8.252;2023-02-10T09:41:39;10.00;;;9.00;;
45842;SDS011;31563;51.744;8.252;2023-02-10T09:44:15;10.38;;;8.32;;
45842;SDS011;31563;51.744;8.252;2023-02-10T09:46:51;9.68;;;8.27;;
45842;SDS011;31563;51.744;8.252;2023-02-10T09:49:43;9.15;;;8.13;;
45842;SDS011;31563;51.744;8.252;2023-02-10T09:52:24;10.85;;;9.68;;
45842;SDS011;31563;51.744;8.252;2023-02-10T09:54:58;9.38;;;8.45;;
45842;SDS011;31563;51.744;8.252;2023-02-10T10:00:03;11.50;;;10.30;;
45842;SDS011;31563;51.744;8.252;2023-02-10T10:02:45;10.63;;;9.52;;
45842;SDS011;31563;51.744;8.252;2023-02-10T10:05:19;10.85;;;9.60;;
45842;SDS011;31563;51.744;8.252;2023-02-10T10:08:07;9.52;;;8.63;;
45842;SDS011;31563;51.744;8.252;2023-02-10T10:10:42;9.95;;;8.90;;
45842;SDS011;31563;51.744;8.252;2023-02-10T10:13:16;12.77;;;11.02;;
45842;SDS011;31563;51.744;8.252;2023-02-10T10:15:53;10.07;;;8.80;;
45842;SDS011;31563;51.744;8.252;2023-02-10T10:18:34;9.90;;;8.35;;
45842;SDS011;31563;51.744;8.252;2023-02-10T10:21:10;9.50;;;8.50;;
45842;SDS011;31563;51.744;8.252;2023-02-10T10:23:52;10.50;;;9.50;;
45842;SDS011;31563;51.744;8.252;2023-02-10T10:26:35;10.82;;;9.73;;
45842;SDS011;31563;51.744;8.252;2023-02-10T10:29:23;10.30;;;8.77;;
45842;SDS011;31563;51.744;8.252;2023-02-10T10:32:02;11.25;;;10.02;;
45842;SDS011;31563;51.744;8.252;2023-02-10T10:34:38;11.13;;;9.48;;
45842;SDS011;31563;51.744;8.252;2023-02-10T10:37:11;10.40;;;9.20;;
45842;SDS011;31563;51.744;8.252;2023-02-10T10:39:43;10.02;;;9.02;;
45842;SDS011;31563;51.744;8.252;2023-02-10T10:42:17;9.38;;;8.45;;
45842;SDS011;31563;51.744;8.252;2023-02-10T10:44:52;9.95;;;8.95;;
45842;SDS011;31563;51.744;8.252;2023-02-10T10:47:29;10.70;;;9.60;;
45842;SDS011;31563;51.744;8.252;2023-02-10T10:50:04;10.35;;;8.63;;
45842;SDS011;31563;51.744;8.252;2023-02-10T10:52:33;10.55;;;9.55;;
45842;SDS011;31563;51.744;8.252;2023-02-10T10:55:06;11.48;;;9.40;;
45842;SDS011;31563;51.744;8.252;2023-02-10T10:57:37;10.60;;;9.27;;
45842;SDS011;31563;51.744;8.252;2023-02-10T11:02:50;9.60;;;7.72;;
45842;SDS011;31563;51.744;8.252;2023-02-10T11:05:22;9.07;;;7.63;;
45842;SDS011;31563;51.744;8.252;2023-02-10T11:07:54;7.85;;;7.00;;
45842;SDS011;31563;51.744;8.252;2023-02-10T11:10:25;9.83;;;8.83;;
45842;SDS011;31563;51.744;8.252;2023-02-10T11:12:55;8.13;;;7.28;;
45842;SDS011;31563;51.744;8.252;2023-02-10T11:15:30;7.20;;;6.50;;
45842;SDS011;31563;51.744;8.252;2023-02-10T11:18:05;9.30;;;6.45;;
45842;SDS011;31563;51.744;8.252;2023-02-10T11:20:40;8.35;;;7.20;;
45842;SDS011;31563;51.744;8.252;2023-02-10T11:23:18;7.47;;;6.60;;
45842;SDS011;31563;51.744;8.252;2023-02-10T11:25:46;8.40;;;7.60;;
45842;SDS011;31563;51.744;8.252;2023-02-10T11:28:24;24.95;;;21.10;;
45842;SDS011;31563;51.744;8.252;2023-02-10T11:30:56;24.15;;;20.45;;
45842;SDS011;31563;51.744;8.252;2023-02-10T11:33:28;24.00;;;21.38;;
45842;SDS011;31563;51.744;8.252;2023-02-10T11:35:58;24.90;;;22.25;;
45842;SDS011;31563;51.744;8.252;2023-02-10T11:38:27;27.08;;;22.98;;
45842;SDS011;31563;51.744;8.252;2023-02-10T11:40:56;25.73;;;22.30;;
45842;SDS011;31563;51.744;8.252;2023-02-10T11:43:26;39.40;;;23.85;;
45842;SDS011;31563;51.744;8.252;2023-02-10T11:45:59;26.35;;;22.30;;
45842;SDS011;31563;51.744;8.252;2023-02-10T11:48:30;22.35;;;19.92;;
45842;SDS011;31563;51.744;8.252;2023-02-10T11:51:03;26.13;;;20.90;;
45842;SDS011;31563;51.744;8.252;2023-02-10T11:53:35;23.17;;;20.05;;
45842;SDS011;31563;51.744;8.252;2023-02-10T11:56:06;21.98;;;18.40;;
45842;SDS011;31563;51.744;8.252;2023-02-10T11:58:50;22.67;;;19.00;;
45842;SDS011;31563;51.744;8.252;2023-02-10T12:01:33;23.35;;;19.20;;
45842;SDS011;31563;51.744;8.252;2023-02-10T12:04:10;22.98;;;20.02;;
45842;SDS011;31563;51.744;8.252;2023-02-10T12:06:50;25.70;;;20.10;;
45842;SDS011;31563;51.744;8.252;2023-02-10T12:09:22;24.98;;;19.35;;
45842;SDS011;31563;51.744;8.252;2023-02-10T12:11:56;25.50;;;19.80;;
45842;SDS011;31563;51.744;8.252;2023-02-10T12:14:37;22.83;;;18.45;;
45842;SDS011;31563;51.744;8.252;2023-02-10T12:17:22;22.02;;;17.58;;
45842;SDS011;31563;51.744;8.252;2023-02-10T12:19:58;18.73;;;16.23;;
45842;SDS011;31563;51.744;8.252;2023-02-10T12:22:35;19.40;;;16.85;;
45842;SDS011;31563;51.744;8.252;2023-02-10T12:25:16;22.90;;;17.48;;
45842;SDS011;31563;51.744;8.252;2023-02-10T12:27:52;19.73;;;16.10;;
45842;SDS011;31563;51.744;8.252;2023-02-10T12:30:29;18.33;;;15.85;;
45842;SDS011;31563;51.744;8.252;2023-02-10T12:33:09;23.52;;;16.65;;
45842;SDS011;31563;51.744;8.252;2023-02-10T12:35:55;21.10;;;16.70;;
45842;SDS011;31563;51.744;8.252;2023-02-10T12:38:35;18.20;;;15.35;;
45842;SDS011;31563;51.744;8.252;2023-02-10T12:41:14;15.20;;;12.60;;
45842;SDS011;31563;51.744;8.252;2023-02-10T12:43:58;14.68;;;11.38;;
45842;SDS011;31563;51.744;8.252;2023-02-10T12:46:39;12.20;;;10.10;;
45842;SDS011;31563;51.744;8.252;2023-02-10T12:49:15;11.65;;;9.00;;
45842;SDS011;31563;51.744;8.252;2023-02-10T12:51:56;8.77;;;7.35;;
45842;SDS011;31563;51.744;8.252;2023-02-10T12:54:30;7.75;;;6.78;;
45842;SDS011;31563;51.744;8.252;2023-02-10T12:57:10;7.65;;;6.22;;
45842;SDS011;31563;51.744;8.252;2023-02-10T12:59:44;9.45;;;6.85;;
45842;SDS011;31563;51.744;8.252;2023-02-10T13:02:19;8.95;;;5.90;;
45842;SDS011;31563;51.744;8.252;2023-02-10T13:04:54;7.57;;;5.82;;
45842;SDS011;31563;51.744;8.252;2023-02-10T13:07:27;8.52;;;5.68;;
45842;SDS011;31563;51.744;8.252;2023-02-10T13:10:06;7.20;;;6.10;;
45842;SDS011;31563;51.744;8.252;2023-02-10T13:12:45;6.85;;;5.53;;
45842;SDS011;31563;51.744;8.252;2023-02-10T13:15:17;9.07;;;5.80;;
45842;SDS011;31563;51.744;8.252;2023-02-10T13:17:50;5.68;;;5.10;;
45842;SDS011;31563;51.744;8.252;2023-02-10T13:20:26;6.03;;;4.75;;
45842;SDS011;31563;51.744;8.252;2023-02-10T13:23:04;7.28;;;5.15;;
45842;SDS011;31563;51.744;8.252;2023-02-10T13:25:44;6.57;;;5.05;;
45842;SDS011;31563;51.744;8.252;2023-02-10T13:28:25;5.40;;;4.63;;
45842;SDS011;31563;51.744;8.252;2023-02-10T13:31:02;6.72;;;5.35;;
45842;SDS011;31563;51.744;8.252;2023-02-10T13:33:43;6.45;;;4.82;;
45842;SDS011;31563;51.744;8.252;2023-02-10T13:36:19;6.40;;;4.38;;
45842;SDS011;31563;51.744;8.252;2023-02-10T13:38:56;6.32;;;4.63;;
45842;SDS011;31563;51.744;8.252;2023-02-10T13:41:29;13.52;;;11.73;;
45842;SDS011;31563;51.744;8.252;2023-02-10T13:44:19;17.67;;;14.27;;
45842;SDS011;31563;51.744;8.252;2023-02-10T13:46:53;16.10;;;14.20;;
45842;SDS011;31563;51.744;8.252;2023-02-10T13:49:26;15.90;;;13.57;;
45842;SDS011;31563;51.744;8.252;2023-02-10T13:52:05;14.65;;;12.43;;
45842;SDS011;31563;51.744;8.252;2023-02-10T13:54:40;13.75;;;9.80;;
45842;SDS011;31563;51.744;8.252;2023-02-10T13:57:26;9.87;;;8.53;;
45842;SDS011;31563;51.744;8.252;2023-02-10T14:02:45;9.73;;;6.13;;
45842;SDS011;31563;51.744;8.252;2023-02-10T14:05:27;6.60;;;5.13;;
45842;SDS011;31563;51.744;8.252;2023-02-10T14:07:58;5.93;;;4.55;;
45842;SDS011;31563;51.744;8.252;2023-02-10T14:10:35;4.72;;;4.13;;
45842;SDS011;31563;51.744;8.252;2023-02-10T14:13:04;6.88;;;4.32;;
45842;SDS011;31563;51.744;8.252;2023-02-10T14:15:54;4.78;;;4.28;;
45842;SDS011;31563;51.744;8.252;2023-02-10T14:18:25;4.65;;;3.90;;
45842;SDS011;31563;51.744;8.252;2023-02-10T14:20:54;5.68;;;3.78;;
45842;SDS011;31563;51.744;8.252;2023-02-10T14:23:25;4.65;;;3.90;;
45842;SDS011;31563;51.744;8.252;2023-02-10T14:25:55;6.90;;;4.22;;
45842;SDS011;31563;51.744;8.252;2023-02-10T14:28:26;4.97;;;4.00;;
45842;SDS011;31563;51.744;8.252;2023-02-10T14:30:59;7.78;;;4.43;;
45842;SDS011;31563;51.744;8.252;2023-02-10T14:33:29;9.82;;;7.78;;
45842;SDS011;31563;51.744;8.252;2023-02-10T14:36:00;7.60;;;5.28;;
45842;SDS011;31563;51.744;8.252;2023-02-10T14:38:32;7.50;;;4.03;;
45842;SDS011;31563;51.744;8.252;2023-02-10T14:41:02;7.88;;;4.28;;
45842;SDS011;31563;51.744;8.252;2023-02-10T14:43:46;8.77;;;3.85;;
45842;SDS011;31563;51.744;8.252;2023-02-10T14:46:17;5.97;;;3.60;;
45842;SDS011;31563;51.744;8.252;2023-02-10T14:48:48;5.72;;;3.40;;
45842;SDS011;31563;51.744;8.252;2023-02-10T14:51:18;7.03;;;3.50;;
45842;SDS011;31563;51.744;8.252;2023-02-10T14:53:49;8.10;;;3.50;;
45842;SDS011;31563;51.744;8.252;2023-02-10T14:56:18;7.28;;;3.50;;
45842;SDS011;31563;51.744;8.252;2023-02-10T14:58:49;6.88;;;3.38;;
45842;SDS011;31563;51.744;8.252;2023-02-10T15:01:20;7.85;;;3.58;;
45842;SDS011;31563;51.744;8.252;2023-02-10T15:03:51;5.15;;;3.20;;
45842;SDS011;31563;51.744;8.252;2023-02-10T15:06:20;5.97;;;2.97;;
45842;SDS011;31563;51.744;8.252;2023-02-10T15:08:53;5.32;;;3.42;;
45842;SDS011;31563;51.744;8.252;2023-02-10T15:11:25;6.63;;;3.00;;
45842;SDS011;31563;51.744;8.252;2023-02-10T15:14:15;6.38;;;3.17;;
45842;SDS011;31563;51.744;8.252;2023-02-10T15:16:48;4.40;;;2.95;;
45842;SDS011;31563;51.744;8.252;2023-02-10T15:19:17;6.68;;;3.45;;
45842;SDS011;31563;51.744;8.252;2023-02-10T15:21:46;9.60;;;3.63;;
45842;SDS011;31563;51.744;8.252;2023-02-10T15:24:21;7.10;;;4.13;;
45842;SDS011;31563;51.744;8.252;2023-02-10T15:26:54;6.05;;;4.07;;
45842;SDS011;31563;51.744;8.252;2023-02-10T15:29:22;6.15;;;3.83;;
45842;SDS011;31563;51.744;8.252;2023-02-10T15:31:54;9.52;;;4.20;;